createdAt,value
2018-07-27T00:00:43.191Z,975.96
2018-07-27T00:01:43.116Z,975.98
2018-07-27T00:02:43.052Z,975.99
2018-07-27T00:03:42.972Z,976.00
2018-07-27T00:04:42.910Z,976.05
2018-07-27T00:05:42.833Z,975.98
2018-07-27T00:06:42.768Z,976.01
2018-07-27T00:07:42.686Z,976.01
2018-07-27T00:08:42.625Z,976.00
2018-07-27T00:09:42.548Z,975.98
2018-07-27T00:10:42.483Z,976.01
2018-07-27T00:11:42.404Z,975.97
2018-07-27T00:12:42.335Z,975.97
2018-07-27T00:13:42.261Z,975.96
2018-07-27T00:14:42.198Z,975.94
2018-07-27T00:15:42.116Z,975.95
2018-07-27T00:16:42.053Z,975.95
2018-07-27T00:17:41.980Z,975.92
2018-07-27T00:18:41.915Z,975.92
2018-07-27T00:19:41.833Z,975.94
2018-07-27T00:20:41.769Z,975.89
2018-07-27T00:21:41.689Z,975.85
2018-07-27T00:22:41.626Z,975.87
2018-07-27T00:23:41.547Z,975.85
2018-07-27T00:24:41.488Z,975.88
2018-07-27T00:25:41.409Z,975.89
2018-07-27T00:26:41.341Z,975.89
2018-07-27T00:27:41.266Z,975.87
2018-07-27T00:28:41.199Z,975.88
2018-07-27T00:29:41.121Z,975.84
2018-07-27T00:30:41.057Z,975.88
2018-07-27T00:31:40.978Z,975.90
2018-07-27T00:32:40.918Z,975.87
2018-07-27T00:33:40.832Z,975.89
2018-07-27T00:34:40.766Z,975.90
2018-07-27T00:35:40.690Z,975.89
2018-07-27T00:36:40.626Z,975.84
2018-07-27T00:37:40.547Z,975.90
2018-07-27T00:38:40.484Z,975.88
2018-07-27T00:39:40.403Z,975.90
2018-07-27T00:40:40.342Z,975.91
2018-07-27T00:41:40.260Z,975.89
2018-07-27T00:42:40.199Z,975.93
2018-07-27T00:43:40.118Z,975.91
2018-07-27T00:44:40.056Z,975.92
2018-07-27T00:45:39.981Z,975.94
2018-07-27T00:46:39.911Z,975.92
2018-07-27T00:47:39.836Z,975.89
2018-07-27T00:48:39.769Z,975.89
2018-07-27T00:49:39.688Z,975.88
2018-07-27T00:50:39.622Z,975.91
2018-07-27T00:51:39.541Z,975.89
2018-07-27T00:52:39.485Z,975.91
2018-07-27T00:53:39.403Z,975.90
2018-07-27T00:54:39.340Z,975.90
2018-07-27T00:55:39.267Z,975.87
2018-07-27T00:56:39.195Z,975.88
2018-07-27T00:57:39.120Z,975.85
2018-07-27T00:58:39.055Z,975.84
2018-07-27T00:59:38.970Z,975.85
2018-07-27T01:00:38.909Z,975.86
2018-07-27T01:01:38.830Z,975.79
2018-07-27T01:02:38.762Z,975.83
2018-07-27T01:03:38.684Z,975.85
2018-07-27T01:04:38.622Z,975.83
2018-07-27T01:05:38.541Z,975.86
2018-07-27T01:06:38.481Z,975.80
2018-07-27T01:07:38.397Z,975.82
2018-07-27T01:08:38.334Z,975.82
2018-07-27T01:09:38.255Z,975.82
2018-07-27T01:10:38.189Z,975.81
2018-07-27T01:11:38.109Z,975.80
2018-07-27T01:12:38.045Z,975.79
2018-07-27T01:13:37.973Z,975.78
2018-07-27T01:14:37.906Z,975.78
2018-07-27T01:15:37.826Z,975.76
2018-07-27T01:16:37.762Z,975.75
2018-07-27T01:17:37.679Z,975.75
2018-07-27T01:18:37.613Z,975.76
2018-07-27T01:19:37.534Z,975.77
2018-07-27T01:20:37.468Z,975.78
2018-07-27T01:21:37.390Z,975.73
2018-07-27T01:22:37.327Z,975.73
2018-07-27T01:23:37.247Z,975.71
2018-07-27T01:24:37.180Z,975.69
2018-07-27T01:25:37.103Z,975.66
2018-07-27T01:26:37.042Z,975.67
2018-07-27T01:27:36.957Z,975.69
2018-07-27T01:28:36.893Z,975.70
2018-07-27T01:29:36.814Z,975.67
2018-07-27T01:30:36.749Z,975.68
2018-07-27T01:31:36.670Z,975.70
2018-07-27T01:32:36.608Z,975.69
2018-07-27T01:33:36.527Z,975.70
2018-07-27T01:34:36.462Z,975.71
2018-07-27T01:35:36.381Z,975.69
2018-07-27T01:36:36.322Z,975.71
2018-07-27T01:37:36.240Z,975.76
2018-07-27T01:38:36.172Z,975.76
2018-07-27T01:39:36.095Z,975.76
2018-07-27T01:40:36.027Z,975.75
2018-07-27T01:41:35.948Z,975.75
2018-07-27T01:42:35.883Z,975.73
2018-07-27T01:43:35.804Z,975.74
2018-07-27T01:44:35.740Z,975.79
2018-07-27T01:45:35.694Z,975.75
2018-07-27T01:46:35.592Z,975.72
2018-07-27T01:47:35.518Z,975.74
2018-07-27T01:48:35.455Z,975.71
2018-07-27T01:49:35.371Z,975.71
2018-07-27T01:50:35.305Z,975.71
2018-07-27T01:51:35.225Z,975.68
2018-07-27T01:52:35.164Z,975.70
2018-07-27T01:53:35.077Z,975.69
2018-07-27T01:54:35.014Z,975.66
2018-07-27T01:55:34.936Z,975.66
2018-07-27T01:56:34.870Z,975.70
2018-07-27T01:57:34.791Z,975.64
2018-07-27T01:58:34.726Z,975.65
2018-07-27T01:59:34.644Z,975.65
2018-07-27T02:00:34.586Z,975.65
2018-07-27T02:01:34.502Z,975.64
2018-07-27T02:02:34.437Z,975.64
2018-07-27T02:03:34.362Z,975.62
2018-07-27T02:04:34.293Z,975.65
2018-07-27T02:05:34.216Z,975.64
2018-07-27T02:06:34.150Z,975.62
2018-07-27T02:07:34.066Z,975.58
2018-07-27T02:08:34.009Z,975.58
2018-07-27T02:09:33.922Z,975.56
2018-07-27T02:10:33.860Z,975.56
2018-07-27T02:11:33.775Z,975.56
2018-07-27T02:12:33.709Z,975.54
2018-07-27T02:13:33.632Z,975.55
2018-07-27T02:14:33.567Z,975.52
2018-07-27T02:15:33.483Z,975.54
2018-07-27T02:16:33.422Z,975.54
2018-07-27T02:17:33.339Z,975.55
2018-07-27T02:18:33.276Z,975.55
2018-07-27T02:19:33.198Z,975.56
2018-07-27T02:20:33.132Z,975.56
2018-07-27T02:21:33.047Z,975.52
2018-07-27T02:22:32.985Z,975.57
2018-07-27T02:23:32.955Z,975.54
2018-07-27T02:24:32.840Z,975.55
2018-07-27T02:25:32.761Z,975.53
2018-07-27T02:26:32.694Z,975.53
2018-07-27T02:27:32.619Z,975.51
2018-07-27T02:28:32.549Z,975.50
2018-07-27T02:29:32.466Z,975.48
2018-07-27T02:30:32.403Z,975.52
2018-07-27T02:31:32.320Z,975.49
2018-07-27T02:32:32.258Z,975.53
2018-07-27T02:33:32.177Z,975.52
2018-07-27T02:34:32.112Z,975.54
2018-07-27T02:35:32.028Z,975.54
2018-07-27T02:36:31.971Z,975.55
2018-07-27T02:37:31.887Z,975.57
2018-07-27T02:38:31.826Z,975.57
2018-07-27T02:39:31.740Z,975.57
2018-07-27T02:40:31.682Z,975.58
2018-07-27T02:41:31.595Z,975.55
2018-07-27T02:42:31.540Z,975.60
2018-07-27T02:43:31.449Z,975.57
2018-07-27T02:44:31.387Z,975.56
2018-07-27T02:45:31.306Z,975.58
2018-07-27T02:46:31.238Z,975.57
2018-07-27T02:47:31.158Z,975.61
2018-07-27T02:48:31.099Z,975.61
2018-07-27T02:49:31.020Z,975.62
2018-07-27T02:50:30.946Z,975.64
2018-07-27T02:51:30.956Z,975.61
2018-07-27T02:52:30.800Z,975.61
2018-07-27T02:53:30.720Z,975.60
2018-07-27T02:54:30.661Z,975.57
2018-07-27T02:55:30.574Z,975.56
2018-07-27T02:56:30.512Z,975.59
2018-07-27T02:57:30.434Z,975.59
2018-07-27T02:58:30.364Z,975.58
2018-07-27T02:59:30.282Z,975.57
2018-07-27T03:00:30.222Z,975.59
2018-07-27T03:01:30.138Z,975.63
2018-07-27T03:02:30.082Z,975.61
2018-07-27T03:03:29.997Z,975.59
2018-07-27T03:04:29.922Z,975.60
2018-07-27T03:05:29.856Z,975.58
2018-07-27T03:06:29.781Z,975.58
2018-07-27T03:07:29.703Z,975.58
2018-07-27T03:08:29.634Z,975.57
2018-07-27T03:09:29.558Z,975.53
2018-07-27T03:10:29.489Z,975.60
2018-07-27T03:11:29.409Z,975.65
2018-07-27T03:12:29.343Z,975.62
2018-07-27T03:13:29.265Z,975.63
2018-07-27T03:14:29.197Z,975.64
2018-07-27T03:15:29.114Z,975.65
2018-07-27T03:16:29.052Z,975.66
2018-07-27T03:17:28.973Z,975.66
2018-07-27T03:18:28.906Z,975.64
2018-07-27T03:19:28.829Z,975.62
2018-07-27T03:20:28.758Z,975.63
2018-07-27T03:21:28.680Z,975.60
2018-07-27T03:22:28.614Z,975.58
2018-07-27T03:23:28.535Z,975.60
2018-07-27T03:24:28.477Z,975.57
2018-07-27T03:25:28.399Z,975.58
2018-07-27T03:26:28.323Z,975.57
2018-07-27T03:27:28.240Z,975.56
2018-07-27T03:28:28.181Z,975.57
2018-07-27T03:29:28.090Z,975.58
2018-07-27T03:30:28.041Z,975.56
2018-07-27T03:31:27.949Z,975.59
2018-07-27T03:32:27.884Z,975.63
2018-07-27T03:33:27.802Z,975.66
2018-07-27T03:34:27.739Z,975.65
2018-07-27T03:35:27.657Z,975.59
2018-07-27T03:36:27.591Z,975.56
2018-07-27T03:37:27.509Z,975.61
2018-07-27T03:38:27.447Z,975.61
2018-07-27T03:39:27.361Z,975.60
2018-07-27T03:40:27.300Z,975.63
2018-07-27T03:41:27.220Z,975.61
2018-07-27T03:42:27.150Z,975.62
2018-07-27T03:43:27.071Z,975.66
2018-07-27T03:44:27.006Z,975.68
2018-07-27T03:45:26.929Z,975.68
2018-07-27T03:46:26.859Z,975.75
2018-07-27T03:47:26.780Z,975.76
2018-07-27T03:48:26.717Z,975.72
2018-07-27T03:49:26.635Z,975.74
2018-07-27T03:50:26.571Z,975.72
2018-07-27T03:51:26.486Z,975.70
2018-07-27T03:52:26.423Z,975.70
2018-07-27T03:53:26.340Z,975.70
2018-07-27T03:54:26.274Z,975.68
2018-07-27T03:55:26.194Z,975.71
2018-07-27T03:56:26.128Z,975.72
2018-07-27T03:57:26.046Z,975.73
2018-07-27T03:58:25.979Z,975.68
2018-07-27T03:59:25.900Z,975.67
2018-07-27T04:00:25.833Z,975.66
2018-07-27T04:01:25.752Z,975.67
2018-07-27T04:02:25.692Z,975.67
2018-07-27T04:03:25.606Z,975.68
2018-07-27T04:04:25.544Z,975.67
2018-07-27T04:05:25.461Z,975.71
2018-07-27T04:06:25.395Z,975.70
2018-07-27T04:07:25.355Z,975.70
2018-07-27T04:08:25.244Z,975.70
2018-07-27T04:09:25.168Z,975.67
2018-07-27T04:10:25.103Z,975.69
2018-07-27T04:11:25.019Z,975.67
2018-07-27T04:12:25.024Z,975.65
2018-07-27T04:13:24.872Z,975.64
2018-07-27T04:14:24.832Z,975.66
2018-07-27T04:15:24.725Z,975.67
2018-07-27T04:16:24.659Z,975.68
2018-07-27T04:17:24.582Z,975.67
2018-07-27T04:18:24.548Z,975.66
2018-07-27T04:19:24.450Z,975.66
2018-07-27T04:20:24.364Z,975.64
2018-07-27T04:21:24.287Z,975.65
2018-07-27T04:22:24.319Z,975.65
2018-07-27T04:23:24.137Z,975.66
2018-07-27T04:24:24.182Z,975.65
2018-07-27T04:25:23.994Z,975.64
2018-07-27T04:26:24.091Z,975.61
2018-07-27T04:27:23.842Z,975.65
2018-07-27T04:28:23.798Z,975.63
2018-07-27T04:29:23.696Z,975.65
2018-07-27T04:30:23.703Z,975.63
2018-07-27T04:31:23.554Z,975.62
2018-07-27T04:32:23.485Z,975.65
2018-07-27T04:33:23.402Z,975.65
2018-07-27T04:34:23.337Z,975.61
2018-07-27T04:35:23.257Z,975.65
2018-07-27T04:36:23.205Z,975.60
2018-07-27T04:37:23.108Z,975.62
2018-07-27T04:38:23.046Z,975.64
2018-07-27T04:39:22.963Z,975.63
2018-07-27T04:40:22.897Z,975.63
2018-07-27T04:41:22.814Z,975.61
2018-07-27T04:42:22.750Z,975.61
2018-07-27T04:43:22.670Z,975.62
2018-07-27T04:44:22.675Z,975.62
2018-07-27T04:45:22.521Z,975.65
2018-07-27T04:46:22.455Z,975.67
2018-07-27T04:47:22.375Z,975.62
2018-07-27T04:48:22.309Z,975.64
2018-07-27T04:49:22.260Z,975.64
2018-07-27T04:50:22.161Z,975.65
2018-07-27T04:51:22.081Z,975.65
2018-07-27T04:52:22.020Z,975.63
2018-07-27T04:53:21.932Z,975.69
2018-07-27T04:54:21.865Z,975.67
2018-07-27T04:55:21.786Z,975.70
2018-07-27T04:56:21.720Z,975.66
2018-07-27T04:57:21.639Z,975.62
2018-07-27T04:58:21.642Z,975.66
2018-07-27T04:59:21.495Z,975.66
2018-07-27T05:00:21.448Z,975.66
2018-07-27T05:01:21.350Z,975.64
2018-07-27T05:02:21.282Z,975.64
2018-07-27T05:03:21.200Z,975.68
2018-07-27T05:04:21.169Z,975.66
2018-07-27T05:05:21.054Z,975.70
2018-07-27T05:06:21.080Z,975.74
2018-07-27T05:07:20.907Z,975.74
2018-07-27T05:08:20.861Z,975.73
2018-07-27T05:09:20.758Z,975.71
2018-07-27T05:10:20.812Z,975.69
2018-07-27T05:11:20.619Z,975.68
2018-07-27T05:12:20.561Z,975.69
2018-07-27T05:13:20.474Z,975.67
2018-07-27T05:14:20.420Z,975.65
2018-07-27T05:15:20.328Z,975.68
2018-07-27T05:16:20.329Z,975.66
2018-07-27T05:17:20.185Z,975.66
2018-07-27T05:18:20.200Z,975.69
2018-07-27T05:19:20.030Z,975.69
2018-07-27T05:20:20.050Z,975.70
2018-07-27T05:21:19.884Z,975.71
2018-07-27T05:22:19.821Z,975.71
2018-07-27T05:23:19.735Z,975.68
2018-07-27T05:24:19.767Z,975.65
2018-07-27T05:25:19.591Z,975.65
2018-07-27T05:26:19.575Z,975.64
2018-07-27T05:27:19.445Z,975.66
2018-07-27T05:28:19.487Z,975.68
2018-07-27T05:29:19.299Z,975.70
2018-07-27T05:30:19.294Z,975.74
2018-07-27T05:31:19.156Z,975.74
2018-07-27T05:32:19.103Z,975.73
2018-07-27T05:33:19.007Z,975.73
2018-07-27T05:34:19.016Z,975.78
2018-07-27T05:35:18.864Z,975.76
2018-07-27T05:36:18.824Z,975.76
2018-07-27T05:37:18.718Z,975.75
2018-07-27T05:38:18.645Z,975.75
2018-07-27T05:39:18.640Z,975.75
2018-07-27T05:40:18.497Z,975.74
2018-07-27T05:41:18.446Z,975.75
2018-07-27T05:42:18.354Z,975.75
2018-07-27T05:43:18.357Z,975.72
2018-07-27T05:44:18.206Z,975.75
2018-07-27T05:45:18.167Z,975.74
2018-07-27T05:46:18.061Z,975.77
2018-07-27T05:47:18.077Z,975.80
2018-07-27T05:48:17.916Z,975.81
2018-07-27T05:49:17.885Z,975.78
2018-07-27T05:50:17.774Z,975.80
2018-07-27T05:51:17.795Z,975.86
2018-07-27T05:52:17.628Z,975.86
2018-07-27T05:53:17.603Z,975.82
2018-07-27T05:54:17.480Z,975.82
2018-07-27T05:55:17.516Z,975.80
2018-07-27T05:56:17.338Z,975.82
2018-07-27T05:57:17.324Z,975.82
2018-07-27T05:58:17.192Z,975.81
2018-07-27T05:59:17.239Z,975.81
2018-07-27T06:00:17.050Z,975.81
2018-07-27T06:01:17.058Z,975.81
2018-07-27T06:02:16.904Z,975.82
2018-07-27T06:03:16.852Z,975.82
2018-07-27T06:04:16.758Z,975.85
2018-07-27T06:05:16.768Z,975.86
2018-07-27T06:06:16.620Z,975.85
2018-07-27T06:07:16.550Z,975.90
2018-07-27T06:08:16.470Z,975.91
2018-07-27T06:09:16.491Z,975.89
2018-07-27T06:10:16.326Z,975.90
2018-07-27T06:11:16.372Z,975.88
2018-07-27T06:12:16.181Z,975.87
2018-07-27T06:13:16.204Z,975.87
2018-07-27T06:14:16.038Z,975.91
2018-07-27T06:15:16.012Z,975.95
2018-07-27T06:16:15.897Z,975.92
2018-07-27T06:17:15.821Z,975.94
2018-07-27T06:18:15.817Z,975.93
2018-07-27T06:19:15.734Z,975.91
2018-07-27T06:20:15.611Z,975.94
2018-07-27T06:21:15.643Z,975.92
2018-07-27T06:22:15.466Z,975.90
2018-07-27T06:23:15.452Z,975.94
2018-07-27T06:24:15.414Z,975.94
2018-07-27T06:25:15.366Z,975.94
2018-07-27T06:26:15.178Z,975.97
2018-07-27T06:27:15.173Z,975.95
2018-07-27T06:28:15.138Z,975.95
2018-07-27T06:29:15.148Z,975.98
2018-07-27T06:30:14.890Z,976.00
2018-07-27T06:31:14.893Z,975.99
2018-07-27T06:32:14.753Z,975.98
2018-07-27T06:33:14.704Z,975.95
2018-07-27T06:34:14.603Z,975.93
2018-07-27T06:35:14.613Z,975.89
2018-07-27T06:36:14.468Z,975.90
2018-07-27T06:37:14.389Z,975.89
2018-07-27T06:38:14.430Z,975.90
2018-07-27T06:39:14.277Z,975.89
2018-07-27T06:40:14.237Z,975.91
2018-07-27T06:41:14.104Z,975.90
2018-07-27T06:42:14.151Z,975.92
2018-07-27T06:43:13.963Z,975.93
2018-07-27T06:44:13.897Z,975.97
2018-07-27T06:45:13.848Z,975.94
2018-07-27T06:46:13.869Z,975.95
2018-07-27T06:47:13.678Z,975.94
2018-07-27T06:48:13.677Z,975.93
2018-07-27T06:49:13.547Z,975.94
2018-07-27T06:50:13.487Z,975.97
2018-07-27T06:51:13.392Z,975.97
2018-07-27T06:52:13.401Z,975.97
2018-07-27T06:53:13.259Z,975.95
2018-07-27T06:54:13.207Z,975.98
2018-07-27T06:55:13.108Z,975.96
2018-07-27T06:56:13.120Z,975.97
2018-07-27T06:57:12.966Z,975.95
2018-07-27T06:58:12.931Z,975.98
2018-07-27T06:59:12.827Z,975.97
2018-07-27T07:00:12.841Z,975.94
2018-07-27T07:01:12.683Z,975.97
2018-07-27T07:02:12.650Z,976.00
2018-07-27T07:03:12.543Z,975.97
2018-07-27T07:04:12.562Z,975.98
2018-07-27T07:05:12.403Z,976.02
2018-07-27T07:06:12.369Z,976.00
2018-07-27T07:07:12.297Z,976.00
2018-07-27T07:08:12.280Z,975.99
2018-07-27T07:09:12.153Z,976.01
2018-07-27T07:10:12.090Z,976.02
2018-07-27T07:11:11.978Z,975.99
2018-07-27T07:12:12.004Z,975.98
2018-07-27T07:13:11.837Z,975.94
2018-07-27T07:14:11.819Z,975.95
2018-07-27T07:15:11.702Z,975.95
2018-07-27T07:16:11.723Z,975.94
2018-07-27T07:17:11.557Z,975.96
2018-07-27T07:18:11.532Z,975.94
2018-07-27T07:19:11.417Z,975.94
2018-07-27T07:20:11.443Z,975.97
2018-07-27T07:21:11.279Z,976.00
2018-07-27T07:22:11.252Z,975.98
2018-07-27T07:23:11.137Z,975.97
2018-07-27T07:24:11.164Z,975.96
2018-07-27T07:25:11.050Z,976.02
2018-07-27T07:26:11.371Z,976.00
2018-07-27T07:27:10.860Z,975.98
2018-07-27T07:28:10.884Z,975.91
2018-07-27T07:29:10.725Z,975.91
2018-07-27T07:30:10.694Z,975.92
2018-07-27T07:31:10.586Z,975.92
2018-07-27T07:32:10.511Z,975.94
2018-07-27T07:33:10.520Z,975.90
2018-07-27T07:34:10.371Z,975.88
2018-07-27T07:35:10.419Z,975.91
2018-07-27T07:36:10.234Z,975.88
2018-07-27T07:37:10.229Z,975.86
2018-07-27T07:38:10.095Z,975.88
2018-07-27T07:39:10.149Z,975.84
2018-07-27T07:40:09.960Z,975.87
2018-07-27T07:41:09.955Z,975.87
2018-07-27T07:42:09.819Z,975.87
2018-07-27T07:43:09.862Z,975.86
2018-07-27T07:44:09.683Z,975.83
2018-07-27T07:45:09.735Z,975.88
2018-07-27T07:46:09.547Z,975.88
2018-07-27T07:47:09.582Z,975.90
2018-07-27T07:48:09.407Z,975.86
2018-07-27T07:49:09.393Z,975.84
2018-07-27T07:50:09.275Z,975.83
2018-07-27T07:51:09.303Z,975.82
2018-07-27T07:52:09.133Z,975.83
2018-07-27T07:53:09.113Z,975.79
2018-07-27T07:54:08.998Z,975.78
2018-07-27T07:55:09.022Z,975.76
2018-07-27T07:56:08.865Z,975.75
2018-07-27T07:57:08.831Z,975.76
2018-07-27T07:58:08.727Z,975.74
2018-07-27T07:59:08.743Z,975.72
2018-07-27T08:00:08.590Z,975.70
2018-07-27T08:01:08.525Z,975.71
2018-07-27T08:02:08.559Z,975.66
2018-07-27T08:03:08.396Z,975.68
2018-07-27T08:04:08.369Z,975.68
2018-07-27T08:05:08.251Z,975.70
2018-07-27T08:06:08.279Z,975.70
2018-07-27T08:07:08.123Z,975.67
2018-07-27T08:08:08.089Z,975.69
2018-07-27T08:09:07.987Z,975.72
2018-07-27T08:10:07.997Z,975.73
2018-07-27T08:11:07.903Z,975.77
2018-07-27T08:12:07.807Z,975.76
2018-07-27T08:13:07.715Z,975.74
2018-07-27T08:14:07.721Z,975.74
2018-07-27T08:15:07.582Z,975.74
2018-07-27T08:16:07.515Z,975.74
2018-07-27T08:17:07.448Z,975.74
2018-07-27T08:18:07.441Z,975.72
2018-07-27T08:19:07.314Z,975.70
2018-07-27T08:20:07.354Z,975.73
2018-07-27T08:21:07.182Z,975.72
2018-07-27T08:22:07.160Z,975.73
2018-07-27T08:23:07.049Z,975.72
2018-07-27T08:24:07.071Z,975.70
2018-07-27T08:25:06.917Z,975.71
2018-07-27T08:26:06.847Z,975.68
2018-07-27T08:27:06.784Z,975.69
2018-07-27T08:28:06.795Z,975.69
2018-07-27T08:29:06.653Z,975.67
2018-07-27T08:30:06.706Z,975.68
2018-07-27T08:31:06.519Z,975.60
2018-07-27T08:32:06.515Z,975.63
2018-07-27T08:33:06.390Z,975.61
2018-07-27T08:34:06.425Z,975.62
2018-07-27T08:35:06.251Z,975.59
2018-07-27T08:36:06.236Z,975.56
2018-07-27T08:37:06.127Z,975.54
2018-07-27T08:38:06.059Z,975.57
2018-07-27T08:39:05.999Z,975.56
2018-07-27T08:40:05.951Z,975.55
2018-07-27T08:41:05.861Z,975.52
2018-07-27T08:42:05.873Z,975.54
2018-07-27T08:43:05.730Z,975.56
2018-07-27T08:44:05.667Z,975.61
2018-07-27T08:45:05.602Z,975.58
2018-07-27T08:46:05.586Z,975.60
2018-07-27T08:47:05.470Z,975.63
2018-07-27T08:48:05.497Z,975.56
2018-07-27T08:49:05.346Z,975.54
2018-07-27T08:50:05.308Z,975.54
2018-07-27T08:51:05.210Z,975.56
2018-07-27T08:52:05.219Z,975.52
2018-07-27T08:53:05.080Z,975.51
2018-07-27T08:54:05.142Z,975.55
2018-07-27T08:55:04.962Z,975.52
2018-07-27T08:56:04.887Z,975.54
2018-07-27T08:57:04.952Z,975.52
2018-07-27T08:58:07.851Z,975.53
2018-07-27T08:59:05.775Z,975.51
2018-07-27T09:00:04.630Z,975.52
2018-07-27T09:01:04.678Z,975.52
2018-07-27T09:02:04.520Z,975.48
2018-07-27T09:03:04.600Z,975.48
2018-07-27T09:04:04.400Z,975.49
2018-07-27T09:05:04.439Z,975.50
2018-07-27T09:06:04.245Z,975.51
2018-07-27T09:07:04.334Z,975.54
2018-07-27T09:08:04.139Z,975.51
2018-07-27T09:09:05.342Z,975.50
2018-07-27T09:10:03.981Z,975.46
2018-07-27T09:11:04.312Z,975.47
2018-07-27T09:12:03.867Z,975.47
2018-07-27T09:13:04.037Z,975.49
2018-07-27T09:14:03.729Z,975.49
2018-07-27T09:15:03.778Z,975.47
2018-07-27T09:16:03.632Z,975.49
2018-07-27T09:17:03.660Z,975.51
2018-07-27T09:18:03.473Z,975.48
2018-07-27T09:19:03.474Z,975.46
2018-07-27T09:20:03.343Z,975.38
2018-07-27T09:21:03.385Z,975.43
2018-07-27T09:22:03.217Z,975.42
2018-07-27T09:23:03.295Z,975.45
2018-07-27T09:24:03.089Z,975.43
2018-07-27T09:25:03.377Z,975.44
2018-07-27T09:26:03.052Z,975.46
2018-07-27T09:27:02.972Z,975.39
2018-07-27T09:28:02.851Z,975.43
2018-07-27T09:29:02.910Z,975.39
2018-07-27T09:30:02.729Z,975.41
2018-07-27T09:31:02.739Z,975.41
2018-07-27T09:32:02.580Z,975.40
2018-07-27T09:33:02.624Z,975.39
2018-07-27T09:34:02.479Z,975.38
2018-07-27T09:35:02.460Z,975.42
2018-07-27T09:36:02.325Z,975.39
2018-07-27T09:37:02.370Z,975.39
2018-07-27T09:38:02.198Z,975.40
2018-07-27T09:39:02.281Z,975.40
2018-07-27T09:40:02.102Z,975.36
2018-07-27T09:41:02.091Z,975.40
2018-07-27T09:42:01.951Z,975.35
2018-07-27T09:43:02.002Z,975.35
2018-07-27T09:44:01.818Z,975.33
2018-07-27T09:45:01.912Z,975.37
2018-07-27T09:46:01.696Z,975.35
2018-07-27T09:47:01.722Z,975.34
2018-07-27T09:48:01.572Z,975.29
2018-07-27T09:49:01.635Z,975.23
2018-07-27T09:50:01.441Z,975.30
2018-07-27T09:51:01.542Z,975.36
2018-07-27T09:52:01.318Z,975.27
2018-07-27T09:53:01.353Z,975.29
2018-07-27T09:54:01.189Z,975.31
2018-07-27T09:55:01.264Z,975.25
2018-07-27T09:56:01.065Z,975.29
2018-07-27T09:57:01.072Z,975.28
2018-07-27T09:58:00.991Z,975.28
2018-07-27T09:59:00.985Z,975.24
2018-07-27T10:00:00.812Z,975.25
2018-07-27T10:01:00.846Z,975.21
2018-07-27T10:02:00.688Z,975.24
2018-07-27T10:03:00.654Z,975.30
2018-07-27T10:04:00.568Z,975.28
2018-07-27T10:05:00.565Z,975.29
2018-07-27T10:06:00.438Z,975.26
2018-07-27T10:07:00.540Z,975.29
2018-07-27T10:08:00.307Z,975.25
2018-07-27T10:09:00.333Z,975.30
2018-07-27T10:10:00.183Z,975.21
2018-07-27T10:11:00.247Z,975.18
2018-07-27T10:12:00.058Z,975.19
2018-07-27T10:13:00.163Z,975.20
2018-07-27T10:13:59.932Z,975.18
2018-07-27T10:14:59.978Z,975.15
2018-07-27T10:15:59.805Z,975.17
2018-07-27T10:16:59.882Z,975.13
2018-07-27T10:17:59.685Z,975.12
2018-07-27T10:18:59.689Z,975.13
2018-07-27T10:19:59.553Z,975.17
2018-07-27T10:20:59.599Z,975.15
2018-07-27T10:21:59.429Z,975.16
2018-07-27T10:22:59.514Z,975.11
2018-07-27T10:23:59.302Z,975.11
2018-07-27T10:24:59.267Z,975.08
2018-07-27T10:25:59.173Z,975.04
2018-07-27T10:26:59.177Z,975.06
2018-07-27T10:27:59.052Z,975.05
2018-07-27T10:28:59.089Z,975.07
2018-07-27T10:29:58.928Z,975.07
2018-07-27T10:30:58.911Z,975.05
2018-07-27T10:31:58.793Z,975.09
2018-07-27T10:32:58.807Z,975.09
2018-07-27T10:33:58.670Z,975.03
2018-07-27T10:34:58.619Z,975.07
2018-07-27T10:35:58.538Z,975.05
2018-07-27T10:36:58.529Z,975.03
2018-07-27T10:37:58.410Z,975.06
2018-07-27T10:38:58.440Z,975.03
2018-07-27T10:39:58.281Z,975.00
2018-07-27T10:40:58.248Z,974.94
2018-07-27T10:41:58.155Z,974.98
2018-07-27T10:42:58.160Z,974.99
2018-07-27T10:43:58.025Z,974.97
2018-07-27T10:44:58.116Z,974.94
2018-07-27T10:45:57.902Z,974.93
2018-07-27T10:46:57.879Z,974.94
2018-07-27T10:47:57.766Z,974.92
2018-07-27T10:48:57.788Z,974.94
2018-07-27T10:49:57.649Z,974.93
2018-07-27T10:50:57.604Z,974.91
2018-07-27T10:51:57.516Z,974.91
2018-07-27T10:52:57.514Z,974.90
2018-07-27T10:53:57.387Z,974.91
2018-07-27T10:54:57.421Z,974.91
2018-07-27T10:55:57.262Z,974.88
2018-07-27T10:56:57.237Z,974.90
2018-07-27T10:57:57.132Z,974.85
2018-07-27T10:58:57.140Z,974.84
2018-07-27T10:59:57.005Z,974.85
2018-07-27T11:00:57.051Z,974.85
2018-07-27T11:01:56.874Z,974.81
2018-07-27T11:02:56.862Z,974.81
2018-07-27T11:03:56.747Z,974.79
2018-07-27T11:04:56.768Z,974.81
2018-07-27T11:05:56.624Z,974.81
2018-07-27T11:06:56.582Z,974.76
2018-07-27T11:07:56.492Z,974.78
2018-07-27T11:08:56.496Z,974.76
2018-07-27T11:09:56.358Z,974.76
2018-07-27T11:10:56.404Z,974.78
2018-07-27T11:11:56.231Z,974.76
2018-07-27T11:12:56.213Z,974.77
2018-07-27T11:13:56.104Z,974.73
2018-07-27T11:14:56.130Z,974.73
2018-07-27T11:15:55.974Z,974.72
2018-07-27T11:16:55.933Z,974.73
2018-07-27T11:17:55.983Z,974.74
2018-07-27T11:18:55.844Z,974.72
2018-07-27T11:19:55.717Z,974.68
2018-07-27T11:20:55.756Z,974.71
2018-07-27T11:21:55.589Z,974.70
2018-07-27T11:22:55.566Z,974.70
2018-07-27T11:23:55.462Z,974.69
2018-07-27T11:24:55.474Z,974.72
2018-07-27T11:25:55.338Z,974.70
2018-07-27T11:26:55.283Z,974.68
2018-07-27T11:27:55.201Z,974.70
2018-07-27T11:28:55.195Z,974.72
2018-07-27T11:29:55.073Z,974.69
2018-07-27T11:30:55.140Z,974.68
2018-07-27T11:31:54.944Z,974.68
2018-07-27T11:32:54.914Z,974.70
2018-07-27T11:33:54.813Z,974.73
2018-07-27T11:34:54.826Z,974.67
2018-07-27T11:35:54.685Z,974.71
2018-07-27T11:36:54.737Z,974.70
2018-07-27T11:37:54.563Z,974.70
2018-07-27T11:38:54.545Z,974.64
2018-07-27T11:39:54.436Z,974.67
2018-07-27T11:40:54.457Z,974.66
2018-07-27T11:41:54.303Z,974.67
2018-07-27T11:42:54.265Z,974.63
2018-07-27T11:43:54.173Z,974.62
2018-07-27T11:44:54.175Z,974.62
2018-07-27T11:45:54.044Z,974.59
2018-07-27T11:46:54.087Z,974.62
2018-07-27T11:47:53.917Z,974.64
2018-07-27T11:48:53.894Z,974.63
2018-07-27T11:49:53.788Z,974.66
2018-07-27T11:50:53.807Z,974.66
2018-07-27T11:51:53.660Z,974.69
2018-07-27T11:52:53.614Z,974.68
2018-07-27T11:53:53.530Z,974.65
2018-07-27T11:54:53.526Z,974.66
2018-07-27T11:55:53.404Z,974.63
2018-07-27T11:56:53.439Z,974.64
2018-07-27T11:57:53.276Z,974.56
2018-07-27T11:58:53.248Z,974.58
2018-07-27T11:59:53.146Z,974.55
2018-07-27T12:00:53.159Z,974.55
2018-07-27T12:01:53.023Z,974.53
2018-07-27T12:02:53.065Z,974.51
2018-07-27T12:03:52.890Z,974.55
2018-07-27T12:04:52.880Z,974.52
2018-07-27T12:05:52.765Z,974.54
2018-07-27T12:06:52.787Z,974.48
2018-07-27T12:07:52.639Z,974.49
2018-07-27T12:08:52.596Z,974.48
2018-07-27T12:09:52.510Z,974.43
2018-07-27T12:10:52.510Z,974.40
2018-07-27T12:11:52.381Z,974.46
2018-07-27T12:12:52.420Z,974.41
2018-07-27T12:13:52.269Z,974.40
2018-07-27T12:14:52.328Z,974.38
2018-07-27T12:15:52.127Z,974.38
2018-07-27T12:16:52.139Z,974.41
2018-07-27T12:17:51.999Z,974.38
2018-07-27T12:18:52.054Z,974.36
2018-07-27T12:19:51.873Z,974.40
2018-07-27T12:20:52.115Z,974.34
2018-07-27T12:21:51.747Z,974.41
2018-07-27T12:22:51.770Z,974.37
2018-07-27T12:23:51.621Z,974.36
2018-07-27T12:24:51.577Z,974.35
2018-07-27T12:25:51.494Z,974.36
2018-07-27T12:26:51.489Z,974.35
2018-07-27T12:27:51.366Z,974.34